METAR Data
IDs: Format: Raw Decoded Include TAF

Data at: 1454 UTC 18 Aug 2019

PANN 181353Z AUTO 07003KT 10SM CLR 07/06 A3039 RMK AO2 SLP297 T00720056 TSNO
PANN 181253Z AUTO 07006KT 10SM FEW016 SCT085 08/06 A3039 RMK AO2 SLP298 T00830061 TSNO
PANN 181153Z AUTO 10007KT 10SM BKN065 OVC080 09/06 A3039 RMK AO2 SLP296 T00890061 10122 20061 55005 TSNO
PANN 181053Z AUTO 30004KT 10SM FEW070 OVC090 09/06 A3038 RMK AO2 SLP293 T00890056 TSNO
PANN 180953Z AUTO 27003KT 10SM OVC070 09/06 A3038 RMK AO2 SLP295 T00940056 TSNO
PANN 180853Z AUTO 00000KT 10SM BKN075 OVC100 08/07 A3040 RMK AO2 SLP301 T00780067 401720061 58011 TSNO
PANN 180753Z AUTO 00000KT 10SM CLR 07/06 A3041 RMK AO2 SLP306 T00720056 TSNO
PANN 180653Z AUTO 00000KT 10SM CLR 08/06 A3042 RMK AO2 SLP309 T00780056 TSNO
PANN 180553Z AUTO 00000KT 10SM CLR 12/04 A3043 RMK AO2 SLP312 T01220039 10172 20122 58009 TSNO
PANN 180453Z AUTO 01006KT 10SM FEW070 14/03 A3044 RMK AO2 SLP316 T01440028 TSNO
PANN 180353Z AUTO 36004KT 10SM CLR 16/03 A3045 RMK AO2 SLP318 T01560033 TSNO
PANN 180253Z AUTO 34005KT 10SM OVC070 16/03 A3046 RMK AO2 SLP321 T01610033 56004 TSNO
PANN 180153Z AUTO 32007KT 10SM BKN065 17/03 A3046 RMK AO2 SLP321 T01670028 TSNO
PANN 180053Z AUTO 04004KT 10SM FEW060 17/04 A3046 RMK AO2 SLP322 T01720039 TSNO
PANN 172353Z AUTO VRB04KT 10SM SCT060 17/03 A3047 RMK AO2 SLP324 T01670033 10167 20100 58009 TSNO
PANN 172253Z AUTO 36006KT 10SM BKN055 16/04 A3048 RMK AO2 SLP329 T01560039 TSNO
PANN 172153Z AUTO VRB04KT 10SM FEW060 16/07 A3049 RMK AO2 SLP330 T01560072 TSNO
PANN 172053Z AUTO 00000KT 10SM FEW027 14/07 A3050 RMK AO2 SLP334 T01390072 51010 TSNO
PANN 171953Z AUTO 01004KT 10SM CLR 13/07 A3049 RMK AO2 SLP331 T01330072 TSNO
PANN 171853Z AUTO 00000KT 10SM SCT080 12/09 A3048 RMK AO2 SLP330 T01170089 TSNO
PANN 171753Z AUTO 00000KT 10SM BKN065 BKN080 10/08 A3046 RMK AO2 SLP323 T01000078 10100 20061 51018 TSNO
PANN 171653Z AUTO 00000KT 10SM OVC065 09/07 A3045 RMK AO2 SLP318 T00890072 TSNO
PANN 171553Z AUTO 00000KT 10SM BKN055 08/06 A3043 RMK AO2 SLP313 T00780061 TSNO
PANN 171453Z AUTO 28004KT 10SM CLR 07/06 A3041 RMK AO2 SLP305 T00670056 51017 TSNO
PANN 171353Z AUTO 29005KT 10SM CLR 07/06 A3039 RMK AO2 SLP299 T00720061 TSNO
PANN 171253Z AUTO 29003KT 10SM BKN100 08/06 A3038 RMK AO2 SLP296 T00780061 TSNO
PANN 171153Z AUTO VRB04KT 10SM FEW037 BKN049 OVC085 08/07 A3036 RMK AO2 SLP288 70074 T00830067 10094 20078 51024 TSNO
PANN 171053Z AUTO VRB04KT 10SM FEW039 OVC050 08/06 A3034 RMK AO2 SLP281 T00830061 TSNO
PANN 170953Z AUTO VRB04KT 10SM OVC065 08/06 A3032 RMK AO2 SLP273 T00830061 TSNO
PANN 170853Z AUTO VRB03KT 10SM BKN100 08/06 A3029 RMK AO2 SLP264 T00780056 401390078 51037 TSNO
PANN 170753Z AUTO VRB03KT 10SM OVC060 08/06 A3026 RMK AO2 SLP253 T00830061 TSNO
PANN 170653Z AUTO VRB03KT 10SM OVC060 09/07 A3022 RMK AO2 SLP241 T00890067 TSNO
PANN 170553Z AUTO VRB04KT 10SM BKN110 09/08 A3018 RMK AO2 RAE00 SLP227 P0000 60017 T00940078 10139 20094 53012 TSNO
PANN 170453Z AUTO VRB04KT 10SM -RA BKN055 OVC070 10/08 A3016 RMK AO2 SLP220 P0003 T01000083 TSNO
PANN 170402Z AUTO VRB06KT 4SM -RA BR FEW015 SCT026 OVC037 12/11 A3015 RMK AO2 P0000 T01220111 TSNO
PANN 170353Z AUTO VRB06KT 2SM -RA BR FEW011 SCT018 OVC031 12/11 A3014 RMK AO2 SLP212 P0013 T01220111 TSNO
PANN 170349Z AUTO VRB05KT 1 1/2SM -RA BR FEW011 BKN023 OVC029 12/11 A3014 RMK AO2 P0013 TSNO
PANN 170340Z AUTO VRB05KT 2 1/2SM -RA BR FEW011 BKN018 OVC035 12/11 A3015 RMK AO2 VIS 1 1/2V5 P0012 T01170106 TSNO
PANN 170331Z AUTO 28008KT 220V310 3SM -RA BR SCT018 BKN034 OVC050 12/11 A3014 RMK AO2 P0011 T01170111 TSNO
PANN 170328Z AUTO VRB06KT 2 1/2SM -RA BR SCT020 BKN029 OVC050 12/11 A3014 RMK AO2 P0011 T01170106 TSNO
PANN 170313Z AUTO 25009G17KT 210V280 3SM -RA BR FEW014 BKN027 OVC050 12/11 A3013 RMK AO2 P0009 T01220111 TSNO
PANN 170307Z AUTO 25008G18KT 180V300 1SM RA BR SCT014 OVC021 13/12 A3014 RMK AO2 P0009 T01280117 TSNO
PANN 170300Z AUTO 26008G20KT 230V290 1SM +RA BR OVC014 13/12 A3014 RMK AO2 P0003 T01330122 TSNO